sensor_id;sensor_type;location;lat;lon;timestamp;temperature;humidity
29917;DHT22;16786;49.466;11.068;2023-05-10T00:00:12;16.80;99.90
29917;DHT22;16786;49.466;11.068;2023-05-10T00:02:40;16.80;99.90
29917;DHT22;16786;49.466;11.068;2023-05-10T00:05:07;16.80;99.90
29917;DHT22;16786;49.466;11.068;2023-05-10T00:07:35;16.70;99.90
29917;DHT22;16786;49.466;11.068;2023-05-10T00:10:02;16.70;99.90
29917;DHT22;16786;49.466;11.068;2023-05-10T00:12:30;16.60;99.90
29917;DHT22;16786;49.466;11.068;2023-05-10T00:14:57;16.50;99.90
29917;DHT22;16786;49.466;11.068;2023-05-10T00:17:25;16.50;99.90
29917;DHT22;16786;49.466;11.068;2023-05-10T00:19:52;16.40;99.90
29917;DHT22;16786;49.466;11.068;2023-05-10T00:22:20;16.50;99.90
29917;DHT22;16786;49.466;11.068;2023-05-10T00:24:47;16.40;99.90
29917;DHT22;16786;49.466;11.068;2023-05-10T00:27:14;16.20;99.90
29917;DHT22;16786;49.466;11.068;2023-05-10T00:29:42;16.20;99.90
29917;DHT22;16786;49.466;11.068;2023-05-10T00:32:09;16.10;99.90
29917;DHT22;16786;49.466;11.068;2023-05-10T00:34:37;16.00;99.90
29917;DHT22;16786;49.466;11.068;2023-05-10T00:37:05;15.90;99.90
29917;DHT22;16786;49.466;11.068;2023-05-10T00:39:33;15.90;99.90
29917;DHT22;16786;49.466;11.068;2023-05-10T00:42:01;15.80;99.90
29917;DHT22;16786;49.466;11.068;2023-05-10T00:44:29;15.70;99.90
29917;DHT22;16786;49.466;11.068;2023-05-10T00:46:57;15.70;99.90
29917;DHT22;16786;49.466;11.068;2023-05-10T00:49:26;15.70;99.90
29917;DHT22;16786;49.466;11.068;2023-05-10T00:51:53;15.60;99.90
29917;DHT22;16786;49.466;11.068;2023-05-10T00:54:21;15.40;99.90
29917;DHT22;16786;49.466;11.068;2023-05-10T00:56:51;15.50;99.90
29917;DHT22;16786;49.466;11.068;2023-05-10T00:59:20;15.50;99.90
29917;DHT22;16786;49.466;11.068;2023-05-10T01:01:47;15.40;99.90
29917;DHT22;16786;49.466;11.068;2023-05-10T01:04:15;15.40;99.90
29917;DHT22;16786;49.466;11.068;2023-05-10T01:06:43;15.40;99.90
29917;DHT22;16786;49.466;11.068;2023-05-10T01:09:10;15.50;99.90
29917;DHT22;16786;49.466;11.068;2023-05-10T01:11:39;15.50;99.90
29917;DHT22;16786;49.466;11.068;2023-05-10T01:14:07;15.40;99.90
29917;DHT22;16786;49.466;11.068;2023-05-10T01:16:38;15.30;99.90
29917;DHT22;16786;49.466;11.068;2023-05-10T01:19:33;15.20;99.90
29917;DHT22;16786;49.466;11.068;2023-05-10T01:23:17;15.20;99.90
29917;DHT22;16786;49.466;11.068;2023-05-10T01:31:08;15.10;99.90
29917;DHT22;16786;49.466;11.068;2023-05-10T01:33:58;15.10;99.90
29917;DHT22;16786;49.466;11.068;2023-05-10T01:36:41;15.10;99.90
29917;DHT22;16786;49.466;11.068;2023-05-10T01:39:20;15.00;99.90
29917;DHT22;16786;49.466;11.068;2023-05-10T01:41:55;14.90;99.90
29917;DHT22;16786;49.466;11.068;2023-05-10T01:44:27;14.90;99.90
29917;DHT22;16786;49.466;11.068;2023-05-10T01:47:09;14.90;99.90
29917;DHT22;16786;49.466;11.068;2023-05-10T01:49:45;14.90;99.90
29917;DHT22;16786;49.466;11.068;2023-05-10T01:52:16;14.90;99.90
29917;DHT22;16786;49.466;11.068;2023-05-10T01:54:53;14.90;99.90
29917;DHT22;16786;49.466;11.068;2023-05-10T01:57:22;14.90;99.90
29917;DHT22;16786;49.466;11.068;2023-05-10T01:59:53;14.90;99.90
29917;DHT22;16786;49.466;11.068;2023-05-10T02:02:21;14.80;99.90
29917;DHT22;16786;49.466;11.068;2023-05-10T02:04:50;14.90;99.90
29917;DHT22;16786;49.466;11.068;2023-05-10T02:07:19;14.90;99.90
29917;DHT22;16786;49.466;11.068;2023-05-10T02:09:47;14.80;99.90
29917;DHT22;16786;49.466;11.068;2023-05-10T02:12:15;14.90;99.90
29917;DHT22;16786;49.466;11.068;2023-05-10T02:14:43;14.80;99.90
29917;DHT22;16786;49.466;11.068;2023-05-10T02:17:12;14.80;99.90
29917;DHT22;16786;49.466;11.068;2023-05-10T02:19:41;14.80;99.90
29917;DHT22;16786;49.466;11.068;2023-05-10T02:22:10;14.80;99.90
29917;DHT22;16786;49.466;11.068;2023-05-10T02:24:39;14.80;99.90
29917;DHT22;16786;49.466;11.068;2023-05-10T02:27:08;14.80;99.90
29917;DHT22;16786;49.466;11.068;2023-05-10T02:29:37;14.80;99.90
29917;DHT22;16786;49.466;11.068;2023-05-10T02:32:05;14.90;99.90
29917;DHT22;16786;49.466;11.068;2023-05-10T02:34:33;14.90;99.90
29917;DHT22;16786;49.466;11.068;2023-05-10T02:37:02;14.90;99.90
29917;DHT22;16786;49.466;11.068;2023-05-10T02:39:32;14.90;99.90
29917;DHT22;16786;49.466;11.068;2023-05-10T02:42:00;14.90;99.90
29917;DHT22;16786;49.466;11.068;2023-05-10T02:44:29;14.90;99.90
29917;DHT22;16786;49.466;11.068;2023-05-10T02:46:58;14.80;99.90
29917;DHT22;16786;49.466;11.068;2023-05-10T02:49:26;14.90;99.90
29917;DHT22;16786;49.466;11.068;2023-05-10T02:52:00;14.90;99.90
29917;DHT22;16786;49.466;11.068;2023-05-10T02:57:13;14.90;99.90
29917;DHT22;16786;49.466;11.068;2023-05-10T02:59:42;14.70;99.90
29917;DHT22;16786;49.466;11.068;2023-05-10T03:02:10;14.70;99.90
29917;DHT22;16786;49.466;11.068;2023-05-10T03:04:37;14.70;99.90
29917;DHT22;16786;49.466;11.068;2023-05-10T03:07:05;14.60;99.90
29917;DHT22;16786;49.466;11.068;2023-05-10T03:09:33;14.60;99.90
29917;DHT22;16786;49.466;11.068;2023-05-10T03:12:05;14.60;99.90
29917;DHT22;16786;49.466;11.068;2023-05-10T03:17:36;14.50;99.90
29917;DHT22;16786;49.466;11.068;2023-05-10T03:20:10;14.40;99.90
29917;DHT22;16786;49.466;11.068;2023-05-10T03:22:45;14.40;99.90
29917;DHT22;16786;49.466;11.068;2023-05-10T03:25:15;14.40;99.90
29917;DHT22;16786;49.466;11.068;2023-05-10T03:27:44;14.30;99.90
29917;DHT22;16786;49.466;11.068;2023-05-10T03:30:13;14.30;99.90
29917;DHT22;16786;49.466;11.068;2023-05-10T03:32:41;14.30;99.90
29917;DHT22;16786;49.466;11.068;2023-05-10T03:35:09;14.30;99.90
29917;DHT22;16786;49.466;11.068;2023-05-10T03:37:37;14.20;99.90
29917;DHT22;16786;49.466;11.068;2023-05-10T03:40:05;14.20;99.90
29917;DHT22;16786;49.466;11.068;2023-05-10T03:42:35;14.10;99.90
29917;DHT22;16786;49.466;11.068;2023-05-10T03:45:03;14.10;99.90
29917;DHT22;16786;49.466;11.068;2023-05-10T03:47:30;14.10;99.90
29917;DHT22;16786;49.466;11.068;2023-05-10T03:49:58;14.00;99.90
29917;DHT22;16786;49.466;11.068;2023-05-10T03:52:26;14.00;99.90
29917;DHT22;16786;49.466;11.068;2023-05-10T03:54:53;13.90;99.90
29917;DHT22;16786;49.466;11.068;2023-05-10T03:57:20;13.90;99.90
29917;DHT22;16786;49.466;11.068;2023-05-10T03:59:48;13.90;99.90
29917;DHT22;16786;49.466;11.068;2023-05-10T04:02:15;13.90;99.90
29917;DHT22;16786;49.466;11.068;2023-05-10T04:04:42;13.80;99.90
29917;DHT22;16786;49.466;11.068;2023-05-10T04:07:10;13.80;99.90
29917;DHT22;16786;49.466;11.068;2023-05-10T04:09:37;13.70;99.90
29917;DHT22;16786;49.466;11.068;2023-05-10T04:12:05;13.70;99.90
29917;DHT22;16786;49.466;11.068;2023-05-10T04:14:34;13.70;99.90
29917;DHT22;16786;49.466;11.068;2023-05-10T04:17:02;13.70;99.90
29917;DHT22;16786;49.466;11.068;2023-05-10T04:19:30;13.70;99.90
29917;DHT22;16786;49.466;11.068;2023-05-10T04:21:58;13.60;99.90
29917;DHT22;16786;49.466;11.068;2023-05-10T04:24:25;13.60;99.90
29917;DHT22;16786;49.466;11.068;2023-05-10T04:26:54;13.60;99.90
29917;DHT22;16786;49.466;11.068;2023-05-10T04:29:23;13.60;99.90
29917;DHT22;16786;49.466;11.068;2023-05-10T04:31:51;13.60;99.90
29917;DHT22;16786;49.466;11.068;2023-05-10T04:34:20;13.60;99.90
29917;DHT22;16786;49.466;11.068;2023-05-10T04:36:47;13.60;99.90
29917;DHT22;16786;49.466;11.068;2023-05-10T04:39:14;13.60;99.90
29917;DHT22;16786;49.466;11.068;2023-05-10T04:41:42;13.50;99.90
29917;DHT22;16786;49.466;11.068;2023-05-10T04:44:09;13.60;99.90
29917;DHT22;16786;49.466;11.068;2023-05-10T04:46:36;13.60;99.90
29917;DHT22;16786;49.466;11.068;2023-05-10T04:49:04;13.60;99.90
29917;DHT22;16786;49.466;11.068;2023-05-10T04:51:31;13.70;99.90
29917;DHT22;16786;49.466;11.068;2023-05-10T04:53:59;13.70;99.90
29917;DHT22;16786;49.466;11.068;2023-05-10T04:56:32;13.70;99.90
29917;DHT22;16786;49.466;11.068;2023-05-10T04:59:00;13.70;99.90
29917;DHT22;16786;49.466;11.068;2023-05-10T05:01:27;13.70;99.90
29917;DHT22;16786;49.466;11.068;2023-05-10T05:03:55;13.80;99.90
29917;DHT22;16786;49.466;11.068;2023-05-10T05:06:23;13.80;99.90
29917;DHT22;16786;49.466;11.068;2023-05-10T05:08:51;13.70;99.90
29917;DHT22;16786;49.466;11.068;2023-05-10T05:11:19;13.70;99.90
29917;DHT22;16786;49.466;11.068;2023-05-10T05:13:46;13.60;99.90
29917;DHT22;16786;49.466;11.068;2023-05-10T05:16:13;13.70;99.90
29917;DHT22;16786;49.466;11.068;2023-05-10T05:18:41;13.80;99.90
29917;DHT22;16786;49.466;11.068;2023-05-10T05:21:15;13.70;99.90
29917;DHT22;16786;49.466;11.068;2023-05-10T05:23:43;13.60;99.90
29917;DHT22;16786;49.466;11.068;2023-05-10T05:26:10;13.60;99.90
29917;DHT22;16786;49.466;11.068;2023-05-10T05:28:38;13.70;99.90
29917;DHT22;16786;49.466;11.068;2023-05-10T05:31:06;13.70;99.90
29917;DHT22;16786;49.466;11.068;2023-05-10T05:33:37;13.70;99.90
29917;DHT22;16786;49.466;11.068;2023-05-10T05:36:05;13.80;99.90
29917;DHT22;16786;49.466;11.068;2023-05-10T05:38:32;13.90;99.90
29917;DHT22;16786;49.466;11.068;2023-05-10T05:41:00;13.90;99.90
29917;DHT22;16786;49.466;11.068;2023-05-10T05:43:27;13.90;99.90
29917;DHT22;16786;49.466;11.068;2023-05-10T05:45:55;13.90;99.90
29917;DHT22;16786;49.466;11.068;2023-05-10T05:48:23;14.00;99.90
29917;DHT22;16786;49.466;11.068;2023-05-10T05:50:53;14.00;99.90
29917;DHT22;16786;49.466;11.068;2023-05-10T05:53:20;14.00;99.90
29917;DHT22;16786;49.466;11.068;2023-05-10T05:55:55;14.00;99.90
29917;DHT22;16786;49.466;11.068;2023-05-10T05:58:23;14.10;99.90
29917;DHT22;16786;49.466;11.068;2023-05-10T06:00:51;14.10;99.90
29917;DHT22;16786;49.466;11.068;2023-05-10T06:03:21;14.20;99.90
29917;DHT22;16786;49.466;11.068;2023-05-10T06:05:49;14.20;99.90
29917;DHT22;16786;49.466;11.068;2023-05-10T06:08:16;14.20;99.90
29917;DHT22;16786;49.466;11.068;2023-05-10T06:10:43;14.30;99.90
29917;DHT22;16786;49.466;11.068;2023-05-10T06:13:11;14.50;99.90
29917;DHT22;16786;49.466;11.068;2023-05-10T06:15:39;14.60;99.90
29917;DHT22;16786;49.466;11.068;2023-05-10T06:18:06;14.60;99.90
29917;DHT22;16786;49.466;11.068;2023-05-10T06:20:34;14.40;99.90
29917;DHT22;16786;49.466;11.068;2023-05-10T06:23:01;14.50;99.90
29917;DHT22;16786;49.466;11.068;2023-05-10T06:25:28;14.50;99.90
29917;DHT22;16786;49.466;11.068;2023-05-10T06:27:56;14.50;99.90
29917;DHT22;16786;49.466;11.068;2023-05-10T06:30:25;14.70;99.90
29917;DHT22;16786;49.466;11.068;2023-05-10T06:32:56;14.80;99.90
29917;DHT22;16786;49.466;11.068;2023-05-10T06:35:24;14.90;99.90
29917;DHT22;16786;49.466;11.068;2023-05-10T06:37:51;15.10;99.90
29917;DHT22;16786;49.466;11.068;2023-05-10T06:40:19;15.00;99.90
29917;DHT22;16786;49.466;11.068;2023-05-10T06:42:47;15.10;99.90
29917;DHT22;16786;49.466;11.068;2023-05-10T06:45:15;15.30;99.90
29917;DHT22;16786;49.466;11.068;2023-05-10T06:47:43;15.40;99.90
29917;DHT22;16786;49.466;11.068;2023-05-10T06:50:11;15.50;99.90
29917;DHT22;16786;49.466;11.068;2023-05-10T06:52:38;15.40;99.90
29917;DHT22;16786;49.466;11.068;2023-05-10T06:55:06;15.50;99.90
29917;DHT22;16786;49.466;11.068;2023-05-10T06:57:34;15.70;99.90
29917;DHT22;16786;49.466;11.068;2023-05-10T07:00:02;15.80;99.90
29917;DHT22;16786;49.466;11.068;2023-05-10T07:02:31;15.90;99.90
29917;DHT22;16786;49.466;11.068;2023-05-10T07:04:59;15.70;99.90
29917;DHT22;16786;49.466;11.068;2023-05-10T07:07:29;15.60;99.90
29917;DHT22;16786;49.466;11.068;2023-05-10T07:09:56;15.90;99.90
29917;DHT22;16786;49.466;11.068;2023-05-10T07:12:24;15.90;99.90
29917;DHT22;16786;49.466;11.068;2023-05-10T07:14:52;16.00;99.90
29917;DHT22;16786;49.466;11.068;2023-05-10T07:17:19;16.10;99.90
29917;DHT22;16786;49.466;11.068;2023-05-10T07:19:47;16.10;99.90
29917;DHT22;16786;49.466;11.068;2023-05-10T07:22:15;16.10;99.90
29917;DHT22;16786;49.466;11.068;2023-05-10T07:24:43;16.20;99.90
29917;DHT22;16786;49.466;11.068;2023-05-10T07:27:10;16.20;99.90
29917;DHT22;16786;49.466;11.068;2023-05-10T07:29:38;16.20;99.90
29917;DHT22;16786;49.466;11.068;2023-05-10T07:32:05;16.20;99.90
29917;DHT22;16786;49.466;11.068;2023-05-10T07:34:33;16.10;99.90
29917;DHT22;16786;49.466;11.068;2023-05-10T07:37:00;16.00;99.90
29917;DHT22;16786;49.466;11.068;2023-05-10T07:39:28;15.80;99.90
29917;DHT22;16786;49.466;11.068;2023-05-10T07:41:55;15.80;99.90
29917;DHT22;16786;49.466;11.068;2023-05-10T07:44:23;15.70;99.90
29917;DHT22;16786;49.466;11.068;2023-05-10T07:46:50;15.60;99.90
29917;DHT22;16786;49.466;11.068;2023-05-10T07:49:18;15.30;99.90
29917;DHT22;16786;49.466;11.068;2023-05-10T07:51:45;15.40;99.90
29917;DHT22;16786;49.466;11.068;2023-05-10T07:54:13;15.50;99.90
29917;DHT22;16786;49.466;11.068;2023-05-10T07:56:40;15.40;99.90
29917;DHT22;16786;49.466;11.068;2023-05-10T07:59:17;15.30;99.90
29917;DHT22;16786;49.466;11.068;2023-05-10T08:01:45;15.30;99.90
29917;DHT22;16786;49.466;11.068;2023-05-10T08:04:12;15.50;99.90
29917;DHT22;16786;49.466;11.068;2023-05-10T08:06:40;15.50;99.90
29917;DHT22;16786;49.466;11.068;2023-05-10T08:09:08;15.70;99.90
29917;DHT22;16786;49.466;11.068;2023-05-10T08:11:36;15.70;99.90
29917;DHT22;16786;49.466;11.068;2023-05-10T08:14:03;15.90;99.90
29917;DHT22;16786;49.466;11.068;2023-05-10T08:16:31;16.20;99.90
29917;DHT22;16786;49.466;11.068;2023-05-10T08:18:59;16.30;99.90
29917;DHT22;16786;49.466;11.068;2023-05-10T08:21:26;16.20;99.90
29917;DHT22;16786;49.466;11.068;2023-05-10T08:23:54;16.20;99.90
29917;DHT22;16786;49.466;11.068;2023-05-10T08:26:21;16.10;99.90
29917;DHT22;16786;49.466;11.068;2023-05-10T08:28:48;16.20;99.90
29917;DHT22;16786;49.466;11.068;2023-05-10T08:31:16;16.50;99.90
29917;DHT22;16786;49.466;11.068;2023-05-10T08:33:45;16.70;99.90
29917;DHT22;16786;49.466;11.068;2023-05-10T08:36:12;16.80;99.90
29917;DHT22;16786;49.466;11.068;2023-05-10T08:38:41;16.90;99.90
29917;DHT22;16786;49.466;11.068;2023-05-10T08:41:09;17.20;99.90
29917;DHT22;16786;49.466;11.068;2023-05-10T08:43:37;17.60;99.90
29917;DHT22;16786;49.466;11.068;2023-05-10T08:46:06;17.40;99.90
29917;DHT22;16786;49.466;11.068;2023-05-10T08:48:34;17.40;99.90
29917;DHT22;16786;49.466;11.068;2023-05-10T08:51:03;17.40;99.90
29917;DHT22;16786;49.466;11.068;2023-05-10T08:53:33;17.70;99.90
29917;DHT22;16786;49.466;11.068;2023-05-10T08:56:03;17.70;99.90
29917;DHT22;16786;49.466;11.068;2023-05-10T08:58:31;17.60;99.90
29917;DHT22;16786;49.466;11.068;2023-05-10T09:00:59;17.60;99.90
29917;DHT22;16786;49.466;11.068;2023-05-10T09:03:28;17.50;99.90
29917;DHT22;16786;49.466;11.068;2023-05-10T09:05:55;17.10;99.90
29917;DHT22;16786;49.466;11.068;2023-05-10T09:08:26;16.80;99.90
29917;DHT22;16786;49.466;11.068;2023-05-10T09:10:56;16.50;99.90
29917;DHT22;16786;49.466;11.068;2023-05-10T09:13:24;15.50;99.90
29917;DHT22;16786;49.466;11.068;2023-05-10T09:15:53;14.80;99.90
29917;DHT22;16786;49.466;11.068;2023-05-10T09:18:20;14.30;99.90
29917;DHT22;16786;49.466;11.068;2023-05-10T09:20:48;14.30;99.90
29917;DHT22;16786;49.466;11.068;2023-05-10T09:23:15;14.40;99.90
29917;DHT22;16786;49.466;11.068;2023-05-10T09:25:43;14.50;99.90
29917;DHT22;16786;49.466;11.068;2023-05-10T09:28:11;14.80;99.90
29917;DHT22;16786;49.466;11.068;2023-05-10T09:30:38;15.00;99.90
29917;DHT22;16786;49.466;11.068;2023-05-10T09:33:06;15.30;99.90
29917;DHT22;16786;49.466;11.068;2023-05-10T09:35:34;15.60;99.90
29917;DHT22;16786;49.466;11.068;2023-05-10T09:38:03;16.00;99.90
29917;DHT22;16786;49.466;11.068;2023-05-10T09:40:31;16.20;99.90
29917;DHT22;16786;49.466;11.068;2023-05-10T09:43:07;16.40;99.90
29917;DHT22;16786;49.466;11.068;2023-05-10T09:45:35;16.60;99.90
29917;DHT22;16786;49.466;11.068;2023-05-10T09:48:05;17.00;99.90
29917;DHT22;16786;49.466;11.068;2023-05-10T09:50:33;17.10;99.90
29917;DHT22;16786;49.466;11.068;2023-05-10T09:53:02;17.40;99.90
29917;DHT22;16786;49.466;11.068;2023-05-10T09:55:44;17.20;99.90
29917;DHT22;16786;49.466;11.068;2023-05-10T09:58:13;17.50;99.90
29917;DHT22;16786;49.466;11.068;2023-05-10T10:00:46;17.80;99.90
29917;DHT22;16786;49.466;11.068;2023-05-10T10:03:16;18.00;99.90
29917;DHT22;16786;49.466;11.068;2023-05-10T10:05:44;18.20;99.90
29917;DHT22;16786;49.466;11.068;2023-05-10T10:08:14;18.30;99.90
29917;DHT22;16786;49.466;11.068;2023-05-10T10:10:42;18.40;99.90
29917;DHT22;16786;49.466;11.068;2023-05-10T10:13:13;18.50;99.90
29917;DHT22;16786;49.466;11.068;2023-05-10T10:15:42;18.20;99.90
29917;DHT22;16786;49.466;11.068;2023-05-10T10:18:14;18.40;99.90
29917;DHT22;16786;49.466;11.068;2023-05-10T10:20:45;18.80;99.90
29917;DHT22;16786;49.466;11.068;2023-05-10T10:23:12;19.20;99.90
29917;DHT22;16786;49.466;11.068;2023-05-10T10:25:43;19.50;99.90
29917;DHT22;16786;49.466;11.068;2023-05-10T10:28:32;19.60;99.90
29917;DHT22;16786;49.466;11.068;2023-05-10T10:32:03;19.70;99.90
29917;DHT22;16786;49.466;11.068;2023-05-10T10:34:03;19.90;99.90
29917;DHT22;16786;49.466;11.068;2023-05-10T10:36:45;20.00;99.90
29917;DHT22;16786;49.466;11.068;2023-05-10T10:39:13;19.70;99.90
29917;DHT22;16786;49.466;11.068;2023-05-10T10:41:52;19.60;99.90
29917;DHT22;16786;49.466;11.068;2023-05-10T10:44:23;19.00;99.90
29917;DHT22;16786;49.466;11.068;2023-05-10T10:49:45;18.30;99.90
29917;DHT22;16786;49.466;11.068;2023-05-10T10:55:12;17.90;99.90
29917;DHT22;16786;49.466;11.068;2023-05-10T10:57:50;17.60;99.90
29917;DHT22;16786;49.466;11.068;2023-05-10T11:00:23;17.40;99.90
29917;DHT22;16786;49.466;11.068;2023-05-10T11:02:55;17.50;99.90
29917;DHT22;16786;49.466;11.068;2023-05-10T11:07:58;17.50;99.90
29917;DHT22;16786;49.466;11.068;2023-05-10T11:10:26;17.20;99.90
29917;DHT22;16786;49.466;11.068;2023-05-10T11:13:10;17.30;99.90
29917;DHT22;16786;49.466;11.068;2023-05-10T11:15:39;17.30;99.90
29917;DHT22;16786;49.466;11.068;2023-05-10T11:18:29;17.10;99.90
29917;DHT22;16786;49.466;11.068;2023-05-10T11:20:59;17.20;99.90
29917;DHT22;16786;49.466;11.068;2023-05-10T11:23:31;17.30;99.90
29917;DHT22;16786;49.466;11.068;2023-05-10T11:26:00;17.40;99.90
29917;DHT22;16786;49.466;11.068;2023-05-10T11:28:28;17.60;99.90
29917;DHT22;16786;49.466;11.068;2023-05-10T11:30:55;17.60;99.90
29917;DHT22;16786;49.466;11.068;2023-05-10T11:33:23;17.80;99.90
29917;DHT22;16786;49.466;11.068;2023-05-10T11:35:50;17.70;99.90
29917;DHT22;16786;49.466;11.068;2023-05-10T11:38:18;17.70;99.90
29917;DHT22;16786;49.466;11.068;2023-05-10T11:40:45;17.70;99.90
29917;DHT22;16786;49.466;11.068;2023-05-10T11:43:12;17.80;99.90
29917;DHT22;16786;49.466;11.068;2023-05-10T11:45:41;17.70;99.90
29917;DHT22;16786;49.466;11.068;2023-05-10T11:48:08;17.80;99.90
29917;DHT22;16786;49.466;11.068;2023-05-10T11:50:37;17.80;99.90
29917;DHT22;16786;49.466;11.068;2023-05-10T11:53:04;18.20;99.90
29917;DHT22;16786;49.466;11.068;2023-05-10T11:55:33;18.40;99.90
29917;DHT22;16786;49.466;11.068;2023-05-10T11:58:01;18.70;99.90
29917;DHT22;16786;49.466;11.068;2023-05-10T12:00:29;19.00;99.90
29917;DHT22;16786;49.466;11.068;2023-05-10T12:03:00;18.90;99.90
29917;DHT22;16786;49.466;11.068;2023-05-10T12:05:28;19.00;99.90
29917;DHT22;16786;49.466;11.068;2023-05-10T12:08:12;18.90;99.90
29917;DHT22;16786;49.466;11.068;2023-05-10T12:10:39;18.80;99.90
29917;DHT22;16786;49.466;11.068;2023-05-10T12:13:13;18.70;99.90
29917;DHT22;16786;49.466;11.068;2023-05-10T12:15:42;18.50;99.90
29917;DHT22;16786;49.466;11.068;2023-05-10T12:18:11;18.20;99.90
29917;DHT22;16786;49.466;11.068;2023-05-10T12:20:39;18.20;99.90
29917;DHT22;16786;49.466;11.068;2023-05-10T12:23:09;18.00;99.90
29917;DHT22;16786;49.466;11.068;2023-05-10T12:25:37;18.10;99.90
29917;DHT22;16786;49.466;11.068;2023-05-10T12:28:07;18.40;99.90
29917;DHT22;16786;49.466;11.068;2023-05-10T12:30:36;18.30;99.90
29917;DHT22;16786;49.466;11.068;2023-05-10T12:33:13;18.50;99.90
29917;DHT22;16786;49.466;11.068;2023-05-10T12:35:52;18.50;99.90
29917;DHT22;16786;49.466;11.068;2023-05-10T12:38:40;18.30;99.90
29917;DHT22;16786;49.466;11.068;2023-05-10T12:41:11;18.60;99.90
29917;DHT22;16786;49.466;11.068;2023-05-10T12:43:40;18.80;99.90
29917;DHT22;16786;49.466;11.068;2023-05-10T12:46:12;19.00;99.90
29917;DHT22;16786;49.466;11.068;2023-05-10T12:48:41;18.60;99.90
29917;DHT22;16786;49.466;11.068;2023-05-10T12:51:09;18.80;99.90
29917;DHT22;16786;49.466;11.068;2023-05-10T12:53:39;19.00;99.90
29917;DHT22;16786;49.466;11.068;2023-05-10T12:56:10;18.70;99.90
29917;DHT22;16786;49.466;11.068;2023-05-10T12:58:38;18.70;99.90
29917;DHT22;16786;49.466;11.068;2023-05-10T13:01:05;18.80;99.90
29917;DHT22;16786;49.466;11.068;2023-05-10T13:03:33;19.10;99.90
29917;DHT22;16786;49.466;11.068;2023-05-10T13:06:00;19.10;99.90
29917;DHT22;16786;49.466;11.068;2023-05-10T13:08:27;19.10;99.90
29917;DHT22;16786;49.466;11.068;2023-05-10T13:10:59;19.30;99.90
29917;DHT22;16786;49.466;11.068;2023-05-10T13:13:27;18.80;99.90
29917;DHT22;16786;49.466;11.068;2023-05-10T13:15:54;18.50;99.90
29917;DHT22;16786;49.466;11.068;2023-05-10T13:18:21;18.50;99.90
29917;DHT22;16786;49.466;11.068;2023-05-10T13:20:49;18.60;99.90
29917;DHT22;16786;49.466;11.068;2023-05-10T13:23:16;18.40;99.90
29917;DHT22;16786;49.466;11.068;2023-05-10T13:25:43;18.10;99.90
29917;DHT22;16786;49.466;11.068;2023-05-10T13:28:11;17.70;99.90
29917;DHT22;16786;49.466;11.068;2023-05-10T13:30:38;17.40;99.90
29917;DHT22;16786;49.466;11.068;2023-05-10T13:33:05;16.90;99.90
29917;DHT22;16786;49.466;11.068;2023-05-10T13:35:32;16.80;99.90
29917;DHT22;16786;49.466;11.068;2023-05-10T13:38:00;16.50;99.90
29917;DHT22;16786;49.466;11.068;2023-05-10T13:40:27;16.30;99.90
29917;DHT22;16786;49.466;11.068;2023-05-10T13:42:55;16.20;99.90
29917;DHT22;16786;49.466;11.068;2023-05-10T13:45:22;16.40;99.90
29917;DHT22;16786;49.466;11.068;2023-05-10T13:47:49;16.80;99.90
29917;DHT22;16786;49.466;11.068;2023-05-10T13:50:17;17.20;99.90
29917;DHT22;16786;49.466;11.068;2023-05-10T13:52:45;17.60;99.90
29917;DHT22;16786;49.466;11.068;2023-05-10T13:55:12;18.00;99.90
29917;DHT22;16786;49.466;11.068;2023-05-10T13:57:40;18.40;99.90
29917;DHT22;16786;49.466;11.068;2023-05-10T14:00:08;18.60;99.90
29917;DHT22;16786;49.466;11.068;2023-05-10T14:02:35;18.90;99.90
29917;DHT22;16786;49.466;11.068;2023-05-10T14:05:03;18.90;99.90
29917;DHT22;16786;49.466;11.068;2023-05-10T14:07:30;18.90;99.90
29917;DHT22;16786;49.466;11.068;2023-05-10T14:09:58;18.90;99.90
29917;DHT22;16786;49.466;11.068;2023-05-10T14:12:25;18.80;99.90
29917;DHT22;16786;49.466;11.068;2023-05-10T14:14:52;18.80;99.90
29917;DHT22;16786;49.466;11.068;2023-05-10T14:17:20;19.00;99.90
29917;DHT22;16786;49.466;11.068;2023-05-10T14:19:47;19.00;99.90
29917;DHT22;16786;49.466;11.068;2023-05-10T14:22:14;19.00;99.90
29917;DHT22;16786;49.466;11.068;2023-05-10T14:24:41;18.80;99.90
29917;DHT22;16786;49.466;11.068;2023-05-10T14:27:10;18.70;99.90
29917;DHT22;16786;49.466;11.068;2023-05-10T14:29:37;18.50;99.90
29917;DHT22;16786;49.466;11.068;2023-05-10T14:32:05;18.50;99.90
29917;DHT22;16786;49.466;11.068;2023-05-10T14:34:33;18.60;99.90
29917;DHT22;16786;49.466;11.068;2023-05-10T14:37:00;18.50;99.90
29917;DHT22;16786;49.466;11.068;2023-05-10T14:39:28;18.20;99.90
29917;DHT22;16786;49.466;11.068;2023-05-10T14:41:58;18.40;99.90
29917;DHT22;16786;49.466;11.068;2023-05-10T14:44:25;18.30;99.90
29917;DHT22;16786;49.466;11.068;2023-05-10T14:46:53;18.30;99.90
29917;DHT22;16786;49.466;11.068;2023-05-10T14:49:20;18.40;99.90
29917;DHT22;16786;49.466;11.068;2023-05-10T14:51:49;18.60;99.90
29917;DHT22;16786;49.466;11.068;2023-05-10T14:54:17;18.80;99.90
29917;DHT22;16786;49.466;11.068;2023-05-10T14:56:44;19.10;99.90
29917;DHT22;16786;49.466;11.068;2023-05-10T14:59:11;19.50;99.90
29917;DHT22;16786;49.466;11.068;2023-05-10T15:01:39;19.70;99.90
29917;DHT22;16786;49.466;11.068;2023-05-10T15:04:09;19.70;99.90
29917;DHT22;16786;49.466;11.068;2023-05-10T15:06:37;19.80;99.90
29917;DHT22;16786;49.466;11.068;2023-05-10T15:09:04;19.60;99.90
29917;DHT22;16786;49.466;11.068;2023-05-10T15:11:31;19.10;99.90
29917;DHT22;16786;49.466;11.068;2023-05-10T15:13:59;18.80;99.90
29917;DHT22;16786;49.466;11.068;2023-05-10T15:16:26;18.40;99.90
29917;DHT22;16786;49.466;11.068;2023-05-10T15:18:53;18.00;99.90
29917;DHT22;16786;49.466;11.068;2023-05-10T15:21:21;17.30;99.90
29917;DHT22;16786;49.466;11.068;2023-05-10T15:23:48;16.80;99.90
29917;DHT22;16786;49.466;11.068;2023-05-10T15:26:15;16.60;99.90
29917;DHT22;16786;49.466;11.068;2023-05-10T15:28:42;16.50;99.90
29917;DHT22;16786;49.466;11.068;2023-05-10T15:31:10;16.40;99.90
29917;DHT22;16786;49.466;11.068;2023-05-10T15:33:43;16.60;99.90
29917;DHT22;16786;49.466;11.068;2023-05-10T15:36:11;16.40;99.90
29917;DHT22;16786;49.466;11.068;2023-05-10T15:38:38;16.40;99.90
29917;DHT22;16786;49.466;11.068;2023-05-10T15:41:05;16.20;99.90
29917;DHT22;16786;49.466;11.068;2023-05-10T15:43:33;16.10;99.90
29917;DHT22;16786;49.466;11.068;2023-05-10T15:46:00;16.20;99.90